Super Express — WAB6372 — position and weather

sailwx.info

Track history (hours):
 
Tides and Currents Weather Stations Pressure Air Temp Water Temp Dewpoint Dewpoint Depression Visibility Wind Speed Wind Dir Waves Ship Positions

Super Express

Owner: CATALINA CHANNEL EXPRESS, Long Beach, CA. More information available from US FCC via Universal Licensing System and Coast Guard Vessel Documentation Center.

Last reported at 2018-Jun-20 03:56 UTC. Time now 2018-Jun-20 05:51 UTC.
Position N 33°45' W 118°16'.

Length 45 m; draft 1 m.

Type: High speed craft. MMSI: 366943940.

Date/timePositionNaut miles runAvg speedWind from/ knotsBaromVisibWave heightAir tempDewpointWater temp
2018-Jun-20 03:56N 33°45' W 118°16'0 0.0
2018-Jun-20 03:30N 33°45' W 118°16'2 3.4
2018-Jun-20 03:01N 33°43' W 118°16'1224.1
2018-Jun-20 02:30N 33°31' W 118°17'10 8.7
2018-Jun-20 01:18N 33°21' W 118°19'722.7
2018-Jun-20 01:00N 33°28' W 118°18'1325.3
2018-Jun-20 00:31N 33°40' W 118°15'5 9.9
2018-Jun-20 00:00N 33°45' W 118°16'0 0.0
2018-Jun-19 23:30N 33°45' W 118°16'2 3.2
2018-Jun-19 23:01N 33°43' W 118°16'1223.4
2018-Jun-19 22:31N 33°32' W 118°18'1010.0
2018-Jun-19 21:31N 33°22' W 118°20'125.2
2018-Jun-19 21:29N 33°23' W 118°20'11 9.0
2018-Jun-19 20:16N 33°33' W 118°23'725.3
2018-Jun-19 20:00N 33°39' W 118°18'611.8
2018-Jun-19 19:30N 33°45' W 118°17'0 0.4
2018-Jun-19 19:00N 33°45' W 118°16'1 2.4
2018-Jun-19 18:30N 33°44' W 118°16'1019.9
2018-Jun-19 18:00N 33°35' W 118°22'9 8.8
2018-Jun-19 16:58N 33°27' W 118°28'8 7.7
2018-Jun-19 15:55N 33°29' W 118°18'1025.0
2018-Jun-19 15:31N 33°39' W 118°16'611.5
2018-Jun-19 15:00N 33°45' W 118°16'0 0.0
2018-Jun-19 14:29N 33°45' W 118°16'0 0.0
2018-Jun-19 14:00N 33°45' W 118°16'0 0.0
2018-Jun-19 03:24N 33°45' W 118°16'0 0.0
2018-Jun-19 03:00N 33°45' W 118°16'0 0.0
2018-Jun-19 02:30N 33°45' W 118°16'0 0.0
2018-Jun-19 02:00N 33°45' W 118°16'2 3.6
2018-Jun-19 01:30N 33°43' W 118°16'1122.6
2018-Jun-19 01:00N 33°32' W 118°18'1111.0
2018-Jun-19 00:03N 33°21' W 118°19'226.1
2018-Jun-18 23:58N 33°23' W 118°20'10 8.5
2018-Jun-18 22:48N 33°32' W 118°26'723.4
2018-Jun-18 22:31N 33°37' W 118°22'815.6
2018-Jun-18 22:00N 33°44' W 118°17'1 1.8
2018-Jun-18 21:30N 33°45' W 118°16'0 0.0
2018-Jun-18 21:00N 33°45' W 118°16'2 5.0
2018-Jun-18 20:31N 33°43' W 118°15'1325.4
2018-Jun-18 20:00N 33°30' W 118°19'4 3.2
2018-Jun-18 18:47N 33°26' W 118°18'725.3
2018-Jun-18 18:30N 33°33' W 118°17'1020.6
2018-Jun-18 18:00N 33°44' W 118°16'1 2.5
2018-Jun-18 17:30N 33°45' W 118°16'0 0.0
2018-Jun-18 17:00N 33°45' W 118°16'0 0.0
2018-Jun-18 16:30N 33°45' W 118°16'0 0.0
2018-Jun-18 16:01N 33°45' W 118°16'0 0.0
2018-Jun-18 15:30N 33°45' W 118°16'0 0.0
2018-Jun-18 15:01N 33°45' W 118°16'0 0.0
2018-Jun-18 14:30N 33°45' W 118°16'0 0.0
2018-Jun-18 14:01N 33°45' W 118°16'0 0.0
2018-Jun-18 03:10N 33°44' W 118°17'1 6.9
2018-Jun-18 03:00N 33°43' W 118°16'1122.4
2018-Jun-18 02:30N 33°32' W 118°17'6 4.6
2018-Jun-18 01:06N 33°26' W 118°18'425.3
2018-Jun-18 00:58N 33°29' W 118°17'1125.4
2018-Jun-18 00:30N 33°41' W 118°15'4 8.7
2018-Jun-18 00:01N 33°45' W 118°16'0 0.0
2018-Jun-17 23:30N 33°45' W 118°16'1 2.8
2018-Jun-17 23:00N 33°44' W 118°16'1122.1
2018-Jun-17 22:30N 33°32' W 118°17'6 3.9
2018-Jun-17 20:58N 33°27' W 118°18'1225.4
2018-Jun-17 20:31N 33°38' W 118°16'713.5
2018-Jun-17 20:00N 33°45' W 118°16'0 0.0
2018-Jun-17 19:30N 33°45' W 118°16'0 0.0
2018-Jun-17 19:00N 33°45' W 118°16'1 2.9
2018-Jun-17 18:31N 33°43' W 118°16'1122.8
2018-Jun-17 18:01N 33°32' W 118°17'4 3.3
2018-Jun-17 16:39N 33°28' W 118°18'424.9
2018-Jun-17 16:30N 33°31' W 118°17'1224.1
2018-Jun-17 16:01N 33°43' W 118°16'2 3.6
2018-Jun-17 15:30N 33°45' W 118°16'0 0.2
2018-Jun-17 15:01N 33°45' W 118°16'0 0.1
2018-Jun-17 14:31N 33°45' W 118°16'0 0.0
2018-Jun-17 14:01N 33°45' W 118°16'0 0.0
2018-Jun-17 13:31N 33°45' W 118°16'0 0.1
2018-Jun-17 13:01N 33°45' W 118°16'0 0.1
2018-Jun-17 12:31N 33°45' W 118°16'0 0.0
2018-Jun-17 06:04N 33°45' W 118°16'0 0.8
2018-Jun-17 06:00N 33°45' W 118°16'0 0.2
2018-Jun-17 05:30N 33°45' W 118°16'0 0.0
2018-Jun-17 05:00N 33°45' W 118°16'0 0.0
2018-Jun-17 04:30N 33°45' W 118°16'2 4.2
2018-Jun-17 04:01N 33°43' W 118°16'1223.9
2018-Jun-17 03:31N 33°31' W 118°17'1011.3
2018-Jun-17 02:36N 33°21' W 118°19'220.7
2018-Jun-17 02:29N 33°23' W 118°20'9 8.6
2018-Jun-17 01:25N 33°31' W 118°25'1025.5
2018-Jun-17 01:00N 33°39' W 118°18'611.2
2018-Jun-17 00:30N 33°45' W 118°16'0 0.0
2018-Jun-17 00:00N 33°45' W 118°16'0 0.0
2018-Jun-16 23:30N 33°45' W 118°16'1 2.8
2018-Jun-16 23:01N 33°44' W 118°16'1122.5
2018-Jun-16 22:30N 33°32' W 118°17'10 9.9
2018-Jun-16 21:32N 33°23' W 118°20'11 9.4
2018-Jun-16 20:19N 33°34' W 118°24'824.8
2018-Jun-16 20:01N 33°40' W 118°18'611.0
2018-Jun-16 19:30N 33°45' W 118°16'0 0.0
2018-Jun-16 19:00N 33°45' W 118°16'1 2.6
2018-Jun-16 18:30N 33°44' W 118°16'1122.4
2018-Jun-16 18:00N 33°32' W 118°17'1110.9
2018-Jun-16 16:57N 33°21' W 118°19'1124.5
2018-Jun-16 16:30N 33°32' W 118°17'1122.9
2018-Jun-16 16:00N 33°43' W 118°16'2 3.2
2018-Jun-16 15:30N 33°45' W 118°16'0 0.2
2018-Jun-16 15:00N 33°45' W 118°16'0 0.1
2018-Jun-16 14:30N 33°45' W 118°16'0 0.0
2018-Jun-16 14:01N 33°45' W 118°16'0 0.0
2018-Jun-16 13:31N 33°45' W 118°16'0 0.0
2018-Jun-16 03:10N 33°45' W 118°16'0 0.0
2018-Jun-16 03:00N 33°45' W 118°16'0 0.2
2018-Jun-16 02:30N 33°45' W 118°16'0 0.0
2018-Jun-16 02:00N 33°45' W 118°16'2 3.9
2018-Jun-16 01:31N 33°43' W 118°16'1122.7
2018-Jun-16 01:00N 33°32' W 118°18'1110.0
2018-Jun-15 23:53N 33°21' W 118°19'718.0
2018-Jun-15 23:30N 33°27' W 118°17'1325.5
2018-Jun-15 23:00N 33°40' W 118°15'510.2
2018-Jun-15 22:30N 33°45' W 118°16'0 0.0
2018-Jun-15 22:01N 33°45' W 118°16'0 0.0
2018-Jun-15 21:31N 33°45' W 118°16'0 0.0
2018-Jun-15 21:00N 33°45' W 118°16'2 4.3
2018-Jun-15 20:30N 33°43' W 118°16'1224.4
2018-Jun-15 20:00N 33°31' W 118°18'1011.1
2018-Jun-15 19:05N 33°21' W 118°19'521.2
2018-Jun-15 18:50N 33°26' W 118°18'824.8
2018-Jun-15 18:30N 33°34' W 118°16'1019.4
2018-Jun-15 18:00N 33°44' W 118°16'1 2.8
2018-Jun-15 17:30N 33°45' W 118°16'0 0.2
2018-Jun-15 17:00N 33°45' W 118°16'0 0.1
2018-Jun-15 16:30N 33°45' W 118°16'0 0.0
2018-Jun-15 16:00N 33°45' W 118°16'0 0.1
2018-Jun-15 15:30N 33°45' W 118°16'0 0.0
2018-Jun-15 15:00N 33°45' W 118°16'0 0.1
2018-Jun-15 14:30N 33°45' W 118°16'  
2018-Jun-13 03:14N 33°45' W 118°16'0 0.4
2018-Jun-13 03:00N 33°45' W 118°16'0 0.0
2018-Jun-13 02:30N 33°45' W 118°16'0 0.0
2018-Jun-13 02:00N 33°45' W 118°16'1 2.9
2018-Jun-13 01:31N 33°43' W 118°16'1122.1
2018-Jun-13 01:00N 33°32' W 118°17'1223.7
2018-Jun-13 00:30N 33°21' W 118°19'1 2.1
2018-Jun-12 23:59N 33°22' W 118°20'1020.4
2018-Jun-12 23:30N 33°27' W 118°30'2 4.2
2018-Jun-12 23:01N 33°28' W 118°28'1325.3
2018-Jun-12 22:30N 33°38' W 118°19'713.9
2018-Jun-12 22:00N 33°45' W 118°16'0 0.1
2018-Jun-12 21:30N 33°45' W 118°16'0 0.0
2018-Jun-12 21:01N 33°45' W 118°16'0 0.0
2018-Jun-12 20:31N 33°45' W 118°16'0 0.0
2018-Jun-12 20:00N 33°45' W 118°16'0 0.0
2018-Jun-12 19:30N 33°45' W 118°16'510.6
2018-Jun-12 19:01N 33°40' W 118°17'1325.7
2018-Jun-12 18:30N 33°30' W 118°27'3 4.4
2018-Jun-12 17:46N 33°27' W 118°28'624.6
2018-Jun-12 17:30N 33°24' W 118°21'3 5.9
2018-Jun-12 17:00N 33°21' W 118°19'1223.6
2018-Jun-12 16:30N 33°33' W 118°17'1121.7
2018-Jun-12 16:01N 33°43' W 118°16'1 2.8
2018-Jun-12 15:30N 33°45' W 118°16'0 0.0
2018-Jun-12 15:00N 33°45' W 118°16'0 0.2
2018-Jun-12 14:30N 33°45' W 118°16'0 0.0
2018-Jun-12 14:00N 33°45' W 118°16'0 0.0
2018-Jun-12 13:30N 33°45' W 118°16'0 0.0
2018-Jun-12 13:00N 33°45' W 118°16'0 0.1
2018-Jun-12 12:30N 33°45' W 118°16'0 0.0
2018-Jun-11 03:21N 33°45' W 118°16'0 0.3
2018-Jun-11 03:00N 33°45' W 118°16'0 0.0
2018-Jun-11 02:30N 33°45' W 118°16'0 0.0
2018-Jun-11 02:00N 33°45' W 118°16'2 3.8
2018-Jun-11 01:31N 33°43' W 118°16'1122.9
2018-Jun-11 01:01N 33°32' W 118°19'1122.4
2018-Jun-11 00:30N 33°21' W 118°19'0 0.0
2018-Jun-11 00:01N 33°21' W 118°19'4 8.7
2018-Jun-10 23:31N 33°25' W 118°18'1325.5
2018-Jun-10 23:01N 33°37' W 118°16'714.6
2018-Jun-10 22:30N 33°45' W 118°17'0 0.3
2018-Jun-10 22:00N 33°45' W 118°16'0 0.0
2018-Jun-10 21:30N 33°45' W 118°16'0 0.0
2018-Jun-10 21:00N 33°45' W 118°16'2 3.6
2018-Jun-10 20:31N 33°43' W 118°16'1424.9
2018-Jun-10 19:57N 33°29' W 118°19'919.3
2018-Jun-10 19:30N 33°21' W 118°19'1 2.7
2018-Jun-10 19:00N 33°22' W 118°19'1224.3
2018-Jun-10 18:30N 33°34' W 118°17'1019.8
2018-Jun-10 18:00N 33°44' W 118°16'1 2.2
2018-Jun-10 17:30N 33°45' W 118°16'0 0.0
2018-Jun-10 17:00N 33°45' W 118°16'0 0.2
2018-Jun-10 16:30N 33°45' W 118°16'0 0.1
2018-Jun-10 16:00N 33°45' W 118°16'0 0.0
2018-Jun-10 15:30N 33°45' W 118°16'0 0.0
2018-Jun-10 15:00N 33°45' W 118°16'0 0.0
2018-Jun-10 14:30N 33°45' W 118°16'  
Track history (hours):
 
Tides and Currents Weather Stations Pressure Air Temp Water Temp Dewpoint Dewpoint Depression Visibility Wind Speed Wind Dir Waves Ship Positions

Super Express

Owner: CATALINA CHANNEL EXPRESS, Long Beach, CA. More information available from US FCC via Universal Licensing System and Coast Guard Vessel Documentation Center.

Last reported at 2018-Jun-20 03:56 UTC. Time now 2018-Jun-20 05:51 UTC.
Position N 33°45' W 118°16'.

Length 45 m; draft 1 m.

Type: High speed craft. MMSI: 366943940.

Date/timePositionNaut miles runAvg speedWind from/ knotsBaromVisibWave heightAir tempDewpointWater temp
2018-Jun-20 03:56N 33°45' W 118°16'0 0.0
2018-Jun-20 03:30N 33°45' W 118°16'2 3.4
2018-Jun-20 03:01N 33°43' W 118°16'1224.1
2018-Jun-20 02:30N 33°31' W 118°17'10 8.7
2018-Jun-20 01:18N 33°21' W 118°19'722.7
2018-Jun-20 01:00N 33°28' W 118°18'1325.3
2018-Jun-20 00:31N 33°40' W 118°15'5 9.9
2018-Jun-20 00:00N 33°45' W 118°16'0 0.0
2018-Jun-19 23:30N 33°45' W 118°16'2 3.2
2018-Jun-19 23:01N 33°43' W 118°16'1223.4
2018-Jun-19 22:31N 33°32' W 118°18'1010.0
2018-Jun-19 21:31N 33°22' W 118°20'125.2
2018-Jun-19 21:29N 33°23' W 118°20'11 9.0
2018-Jun-19 20:16N 33°33' W 118°23'725.3
2018-Jun-19 20:00N 33°39' W 118°18'611.8
2018-Jun-19 19:30N 33°45' W 118°17'0 0.4
2018-Jun-19 19:00N 33°45' W 118°16'1 2.4
2018-Jun-19 18:30N 33°44' W 118°16'1019.9
2018-Jun-19 18:00N 33°35' W 118°22'9 8.8
2018-Jun-19 16:58N 33°27' W 118°28'8 7.7
2018-Jun-19 15:55N 33°29' W 118°18'1025.0
2018-Jun-19 15:31N 33°39' W 118°16'611.5
2018-Jun-19 15:00N 33°45' W 118°16'0 0.0
2018-Jun-19 14:29N 33°45' W 118°16'0 0.0
2018-Jun-19 14:00N 33°45' W 118°16'0 0.0
2018-Jun-19 03:24N 33°45' W 118°16'0 0.0
2018-Jun-19 03:00N 33°45' W 118°16'0 0.0
2018-Jun-19 02:30N 33°45' W 118°16'0 0.0
2018-Jun-19 02:00N 33°45' W 118°16'2 3.6
2018-Jun-19 01:30N 33°43' W 118°16'1122.6
2018-Jun-19 01:00N 33°32' W 118°18'1111.0
2018-Jun-19 00:03N 33°21' W 118°19'226.1
2018-Jun-18 23:58N 33°23' W 118°20'10 8.5
2018-Jun-18 22:48N 33°32' W 118°26'723.4
2018-Jun-18 22:31N 33°37' W 118°22'815.6
2018-Jun-18 22:00N 33°44' W 118°17'1 1.8
2018-Jun-18 21:30N 33°45' W 118°16'0 0.0
2018-Jun-18 21:00N 33°45' W 118°16'2 5.0
2018-Jun-18 20:31N 33°43' W 118°15'1325.4
2018-Jun-18 20:00N 33°30' W 118°19'4 3.2
2018-Jun-18 18:47N 33°26' W 118°18'725.3
2018-Jun-18 18:30N 33°33' W 118°17'1020.6
2018-Jun-18 18:00N 33°44' W 118°16'1 2.5
2018-Jun-18 17:30N 33°45' W 118°16'0 0.0
2018-Jun-18 17:00N 33°45' W 118°16'0 0.0
2018-Jun-18 16:30N 33°45' W 118°16'0 0.0
2018-Jun-18 16:01N 33°45' W 118°16'0 0.0
2018-Jun-18 15:30N 33°45' W 118°16'0 0.0
2018-Jun-18 15:01N 33°45' W 118°16'0 0.0
2018-Jun-18 14:30N 33°45' W 118°16'0 0.0
2018-Jun-18 14:01N 33°45' W 118°16'0 0.0
2018-Jun-18 03:10N 33°44' W 118°17'1 6.9
2018-Jun-18 03:00N 33°43' W 118°16'1122.4
2018-Jun-18 02:30N 33°32' W 118°17'6 4.6
2018-Jun-18 01:06N 33°26' W 118°18'425.3
2018-Jun-18 00:58N 33°29' W 118°17'1125.4
2018-Jun-18 00:30N 33°41' W 118°15'4 8.7
2018-Jun-18 00:01N 33°45' W 118°16'0 0.0
2018-Jun-17 23:30N 33°45' W 118°16'1 2.8
2018-Jun-17 23:00N 33°44' W 118°16'1122.1
2018-Jun-17 22:30N 33°32' W 118°17'6 3.9
2018-Jun-17 20:58N 33°27' W 118°18'1225.4
2018-Jun-17 20:31N 33°38' W 118°16'713.5
2018-Jun-17 20:00N 33°45' W 118°16'0 0.0
2018-Jun-17 19:30N 33°45' W 118°16'0 0.0
2018-Jun-17 19:00N 33°45' W 118°16'1 2.9
2018-Jun-17 18:31N 33°43' W 118°16'1122.8
2018-Jun-17 18:01N 33°32' W 118°17'4 3.3
2018-Jun-17 16:39N 33°28' W 118°18'424.9
2018-Jun-17 16:30N 33°31' W 118°17'1224.1
2018-Jun-17 16:01N 33°43' W 118°16'2 3.6
2018-Jun-17 15:30N 33°45' W 118°16'0 0.2
2018-Jun-17 15:01N 33°45' W 118°16'0 0.1
2018-Jun-17 14:31N 33°45' W 118°16'0 0.0
2018-Jun-17 14:01N 33°45' W 118°16'0 0.0
2018-Jun-17 13:31N 33°45' W 118°16'0 0.1
2018-Jun-17 13:01N 33°45' W 118°16'0 0.1
2018-Jun-17 12:31N 33°45' W 118°16'0 0.0
2018-Jun-17 06:04N 33°45' W 118°16'0 0.8
2018-Jun-17 06:00N 33°45' W 118°16'0 0.2
2018-Jun-17 05:30N 33°45' W 118°16'0 0.0
2018-Jun-17 05:00N 33°45' W 118°16'0 0.0
2018-Jun-17 04:30N 33°45' W 118°16'2 4.2
2018-Jun-17 04:01N 33°43' W 118°16'1223.9
2018-Jun-17 03:31N 33°31' W 118°17'1011.3
2018-Jun-17 02:36N 33°21' W 118°19'220.7
2018-Jun-17 02:29N 33°23' W 118°20'9 8.6
2018-Jun-17 01:25N 33°31' W 118°25'1025.5
2018-Jun-17 01:00N 33°39' W 118°18'611.2
2018-Jun-17 00:30N 33°45' W 118°16'0 0.0
2018-Jun-17 00:00N 33°45' W 118°16'0 0.0
2018-Jun-16 23:30N 33°45' W 118°16'1 2.8
2018-Jun-16 23:01N 33°44' W 118°16'1122.5
2018-Jun-16 22:30N 33°32' W 118°17'10 9.9
2018-Jun-16 21:32N 33°23' W 118°20'11 9.4
2018-Jun-16 20:19N 33°34' W 118°24'824.8
2018-Jun-16 20:01N 33°40' W 118°18'611.0
2018-Jun-16 19:30N 33°45' W 118°16'0 0.0
2018-Jun-16 19:00N 33°45' W 118°16'1 2.6
2018-Jun-16 18:30N 33°44' W 118°16'1122.4
2018-Jun-16 18:00N 33°32' W 118°17'1110.9
2018-Jun-16 16:57N 33°21' W 118°19'1124.5
2018-Jun-16 16:30N 33°32' W 118°17'1122.9
2018-Jun-16 16:00N 33°43' W 118°16'2 3.2
2018-Jun-16 15:30N 33°45' W 118°16'0 0.2
2018-Jun-16 15:00N 33°45' W 118°16'0 0.1
2018-Jun-16 14:30N 33°45' W 118°16'0 0.0
2018-Jun-16 14:01N 33°45' W 118°16'0 0.0
2018-Jun-16 13:31N 33°45' W 118°16'0 0.0
2018-Jun-16 03:10N 33°45' W 118°16'0 0.0
2018-Jun-16 03:00N 33°45' W 118°16'0 0.2
2018-Jun-16 02:30N 33°45' W 118°16'0 0.0
2018-Jun-16 02:00N 33°45' W 118°16'2 3.9
2018-Jun-16 01:31N 33°43' W 118°16'1122.7
2018-Jun-16 01:00N 33°32' W 118°18'1110.0
2018-Jun-15 23:53N 33°21' W 118°19'718.0
2018-Jun-15 23:30N 33°27' W 118°17'1325.5
2018-Jun-15 23:00N 33°40' W 118°15'510.2
2018-Jun-15 22:30N 33°45' W 118°16'0 0.0
2018-Jun-15 22:01N 33°45' W 118°16'0 0.0
2018-Jun-15 21:31N 33°45' W 118°16'0 0.0
2018-Jun-15 21:00N 33°45' W 118°16'2 4.3
2018-Jun-15 20:30N 33°43' W 118°16'1224.4
2018-Jun-15 20:00N 33°31' W 118°18'1011.1
2018-Jun-15 19:05N 33°21' W 118°19'521.2
2018-Jun-15 18:50N 33°26' W 118°18'824.8
2018-Jun-15 18:30N 33°34' W 118°16'1019.4
2018-Jun-15 18:00N 33°44' W 118°16'1 2.8
2018-Jun-15 17:30N 33°45' W 118°16'0 0.2
2018-Jun-15 17:00N 33°45' W 118°16'0 0.1
2018-Jun-15 16:30N 33°45' W 118°16'0 0.0
2018-Jun-15 16:00N 33°45' W 118°16'0 0.1
2018-Jun-15 15:30N 33°45' W 118°16'0 0.0
2018-Jun-15 15:00N 33°45' W 118°16'0 0.1
2018-Jun-15 14:30N 33°45' W 118°16'  
2018-Jun-13 03:14N 33°45' W 118°16'0 0.4
2018-Jun-13 03:00N 33°45' W 118°16'0 0.0
2018-Jun-13 02:30N 33°45' W 118°16'0 0.0
2018-Jun-13 02:00N 33°45' W 118°16'1 2.9
2018-Jun-13 01:31N 33°43' W 118°16'1122.1
2018-Jun-13 01:00N 33°32' W 118°17'1223.7
2018-Jun-13 00:30N 33°21' W 118°19'1 2.1
2018-Jun-12 23:59N 33°22' W 118°20'1020.4
2018-Jun-12 23:30N 33°27' W 118°30'2 4.2
2018-Jun-12 23:01N 33°28' W 118°28'1325.3
2018-Jun-12 22:30N 33°38' W 118°19'713.9
2018-Jun-12 22:00N 33°45' W 118°16'0 0.1
2018-Jun-12 21:30N 33°45' W 118°16'0 0.0
2018-Jun-12 21:01N 33°45' W 118°16'0 0.0
2018-Jun-12 20:31N 33°45' W 118°16'0 0.0
2018-Jun-12 20:00N 33°45' W 118°16'0 0.0
2018-Jun-12 19:30N 33°45' W 118°16'510.6
2018-Jun-12 19:01N 33°40' W 118°17'1325.7
2018-Jun-12 18:30N 33°30' W 118°27'3 4.4
2018-Jun-12 17:46N 33°27' W 118°28'624.6
2018-Jun-12 17:30N 33°24' W 118°21'3 5.9
2018-Jun-12 17:00N 33°21' W 118°19'1223.6
2018-Jun-12 16:30N 33°33' W 118°17'1121.7
2018-Jun-12 16:01N 33°43' W 118°16'1 2.8
2018-Jun-12 15:30N 33°45' W 118°16'0 0.0
2018-Jun-12 15:00N 33°45' W 118°16'0 0.2
2018-Jun-12 14:30N 33°45' W 118°16'0 0.0
2018-Jun-12 14:00N 33°45' W 118°16'0 0.0
2018-Jun-12 13:30N 33°45' W 118°16'0 0.0
2018-Jun-12 13:00N 33°45' W 118°16'0 0.1
2018-Jun-12 12:30N 33°45' W 118°16'0 0.0
2018-Jun-11 03:21N 33°45' W 118°16'0 0.3
2018-Jun-11 03:00N 33°45' W 118°16'0 0.0
2018-Jun-11 02:30N 33°45' W 118°16'0 0.0
2018-Jun-11 02:00N 33°45' W 118°16'2 3.8
2018-Jun-11 01:31N 33°43' W 118°16'1122.9
2018-Jun-11 01:01N 33°32' W 118°19'1122.4
2018-Jun-11 00:30N 33°21' W 118°19'0 0.0
2018-Jun-11 00:01N 33°21' W 118°19'4 8.7
2018-Jun-10 23:31N 33°25' W 118°18'1325.5
2018-Jun-10 23:01N 33°37' W 118°16'714.6
2018-Jun-10 22:30N 33°45' W 118°17'0 0.3
2018-Jun-10 22:00N 33°45' W 118°16'0 0.0
2018-Jun-10 21:30N 33°45' W 118°16'0 0.0
2018-Jun-10 21:00N 33°45' W 118°16'2 3.6
2018-Jun-10 20:31N 33°43' W 118°16'1424.9
2018-Jun-10 19:57N 33°29' W 118°19'919.3
2018-Jun-10 19:30N 33°21' W 118°19'1 2.7
2018-Jun-10 19:00N 33°22' W 118°19'1224.3
2018-Jun-10 18:30N 33°34' W 118°17'1019.8
2018-Jun-10 18:00N 33°44' W 118°16'1 2.2
2018-Jun-10 17:30N 33°45' W 118°16'0 0.0
2018-Jun-10 17:00N 33°45' W 118°16'0 0.2
2018-Jun-10 16:30N 33°45' W 118°16'0 0.1
2018-Jun-10 16:00N 33°45' W 118°16'0 0.0
2018-Jun-10 15:30N 33°45' W 118°16'0 0.0
2018-Jun-10 15:00N 33°45' W 118°16'0 0.0
2018-Jun-10 14:30N 33°45' W 118°16'  

Dump ship's entire track history